sensor_id;sensor_type;location;lat;lon;timestamp;P1;durP1;ratioP1;P2;durP2;ratioP2
60243;SDS011;46106;51.468;5.814;2023-12-14T00:00:12;44.20;;;19.20;;
60243;SDS011;46106;51.468;5.814;2023-12-14T00:02:37;45.58;;;18.17;;
60243;SDS011;46106;51.468;5.814;2023-12-14T00:05:03;48.65;;;19.42;;
60243;SDS011;46106;51.468;5.814;2023-12-14T00:07:29;48.05;;;18.63;;
60243;SDS011;46106;51.468;5.814;2023-12-14T00:09:54;49.58;;;18.80;;
60243;SDS011;46106;51.468;5.814;2023-12-14T00:12:20;42.50;;;18.83;;
60243;SDS011;46106;51.468;5.814;2023-12-14T00:14:45;45.28;;;19.02;;
60243;SDS011;46106;51.468;5.814;2023-12-14T00:17:10;42.58;;;17.85;;
60243;SDS011;46106;51.468;5.814;2023-12-14T00:19:36;42.92;;;18.55;;
60243;SDS011;46106;51.468;5.814;2023-12-14T00:22:01;41.80;;;17.50;;
60243;SDS011;46106;51.468;5.814;2023-12-14T00:24:27;45.40;;;17.58;;
60243;SDS011;46106;51.468;5.814;2023-12-14T00:26:52;44.08;;;18.27;;
60243;SDS011;46106;51.468;5.814;2023-12-14T00:29:18;40.95;;;17.90;;
60243;SDS011;46106;51.468;5.814;2023-12-14T00:31:43;44.20;;;17.77;;
60243;SDS011;46106;51.468;5.814;2023-12-14T00:34:09;42.03;;;17.25;;
60243;SDS011;46106;51.468;5.814;2023-12-14T00:36:35;48.85;;;18.40;;
60243;SDS011;46106;51.468;5.814;2023-12-14T00:39:01;38.17;;;17.45;;
60243;SDS011;46106;51.468;5.814;2023-12-14T00:41:28;39.97;;;17.73;;
60243;SDS011;46106;51.468;5.814;2023-12-14T00:43:53;43.35;;;17.42;;
60243;SDS011;46106;51.468;5.814;2023-12-14T00:46:19;39.67;;;16.27;;
60243;SDS011;46106;51.468;5.814;2023-12-14T00:48:44;41.70;;;17.13;;
60243;SDS011;46106;51.468;5.814;2023-12-14T00:51:09;45.38;;;17.85;;
60243;SDS011;46106;51.468;5.814;2023-12-14T00:53:35;40.42;;;17.27;;
60243;SDS011;46106;51.468;5.814;2023-12-14T00:56:00;40.55;;;17.15;;
60243;SDS011;46106;51.468;5.814;2023-12-14T00:58:26;47.03;;;18.23;;
60243;SDS011;46106;51.468;5.814;2023-12-14T01:00:53;39.00;;;17.60;;
60243;SDS011;46106;51.468;5.814;2023-12-14T01:03:20;42.95;;;17.08;;
60243;SDS011;46106;51.468;5.814;2023-12-14T01:05:45;39.35;;;16.48;;
60243;SDS011;46106;51.468;5.814;2023-12-14T01:08:11;41.28;;;17.17;;
60243;SDS011;46106;51.468;5.814;2023-12-14T01:10:37;47.55;;;17.77;;
60243;SDS011;46106;51.468;5.814;2023-12-14T01:13:03;51.08;;;17.83;;
60243;SDS011;46106;51.468;5.814;2023-12-14T01:15:29;40.65;;;16.63;;
60243;SDS011;46106;51.468;5.814;2023-12-14T01:17:54;42.97;;;17.60;;
60243;SDS011;46106;51.468;5.814;2023-12-14T01:20:20;38.72;;;16.67;;
60243;SDS011;46106;51.468;5.814;2023-12-14T01:22:45;50.45;;;17.92;;
60243;SDS011;46106;51.468;5.814;2023-12-14T01:25:10;49.92;;;17.95;;
60243;SDS011;46106;51.468;5.814;2023-12-14T01:27:37;43.13;;;17.70;;
60243;SDS011;46106;51.468;5.814;2023-12-14T01:30:02;44.20;;;18.55;;
60243;SDS011;46106;51.468;5.814;2023-12-14T01:32:28;44.25;;;17.98;;
60243;SDS011;46106;51.468;5.814;2023-12-14T01:34:55;47.63;;;18.27;;
60243;SDS011;46106;51.468;5.814;2023-12-14T01:37:21;51.28;;;18.40;;
60243;SDS011;46106;51.468;5.814;2023-12-14T01:39:47;52.17;;;19.65;;
60243;SDS011;46106;51.468;5.814;2023-12-14T01:42:13;56.00;;;19.65;;
60243;SDS011;46106;51.468;5.814;2023-12-14T01:44:39;51.42;;;18.50;;
60243;SDS011;46106;51.468;5.814;2023-12-14T01:47:08;54.53;;;19.35;;
60243;SDS011;46106;51.468;5.814;2023-12-14T01:49:33;53.13;;;18.35;;
60243;SDS011;46106;51.468;5.814;2023-12-14T01:51:59;56.88;;;19.77;;
60243;SDS011;46106;51.468;5.814;2023-12-14T01:54:24;50.28;;;18.63;;
60243;SDS011;46106;51.468;5.814;2023-12-14T01:56:51;53.60;;;19.23;;
60243;SDS011;46106;51.468;5.814;2023-12-14T01:59:16;46.90;;;18.38;;
60243;SDS011;46106;51.468;5.814;2023-12-14T02:01:43;55.80;;;19.48;;
60243;SDS011;46106;51.468;5.814;2023-12-14T02:04:11;48.92;;;19.80;;
60243;SDS011;46106;51.468;5.814;2023-12-14T02:06:40;52.28;;;20.00;;
60243;SDS011;46106;51.468;5.814;2023-12-14T02:09:07;54.80;;;18.83;;
60243;SDS011;46106;51.468;5.814;2023-12-14T02:11:32;48.17;;;19.10;;
60243;SDS011;46106;51.468;5.814;2023-12-14T02:14:02;52.83;;;20.58;;
60243;SDS011;46106;51.468;5.814;2023-12-14T02:16:28;57.85;;;21.65;;
60243;SDS011;46106;51.468;5.814;2023-12-14T02:18:54;53.75;;;20.33;;
60243;SDS011;46106;51.468;5.814;2023-12-14T02:21:22;55.28;;;21.15;;
60243;SDS011;46106;51.468;5.814;2023-12-14T02:23:50;59.42;;;21.40;;
60243;SDS011;46106;51.468;5.814;2023-12-14T02:26:15;61.78;;;22.40;;
60243;SDS011;46106;51.468;5.814;2023-12-14T02:28:40;55.88;;;20.23;;
60243;SDS011;46106;51.468;5.814;2023-12-14T02:31:06;58.40;;;21.05;;
60243;SDS011;46106;51.468;5.814;2023-12-14T02:33:31;64.07;;;21.42;;
60243;SDS011;46106;51.468;5.814;2023-12-14T02:35:59;59.72;;;21.48;;
60243;SDS011;46106;51.468;5.814;2023-12-14T02:38:34;56.72;;;21.52;;
60243;SDS011;46106;51.468;5.814;2023-12-14T02:41:01;59.33;;;21.00;;
60243;SDS011;46106;51.468;5.814;2023-12-14T02:43:29;56.42;;;21.55;;
60243;SDS011;46106;51.468;5.814;2023-12-14T02:45:55;59.03;;;22.27;;
60243;SDS011;46106;51.468;5.814;2023-12-14T02:48:28;63.45;;;21.42;;
60243;SDS011;46106;51.468;5.814;2023-12-14T02:50:56;58.88;;;20.08;;
60243;SDS011;46106;51.468;5.814;2023-12-14T02:53:22;59.25;;;19.05;;
60243;SDS011;46106;51.468;5.814;2023-12-14T02:55:49;64.32;;;20.85;;
60243;SDS011;46106;51.468;5.814;2023-12-14T02:58:15;60.45;;;20.88;;
60243;SDS011;46106;51.468;5.814;2023-12-14T03:00:40;57.45;;;20.55;;
60243;SDS011;46106;51.468;5.814;2023-12-14T03:03:05;53.78;;;19.85;;
60243;SDS011;46106;51.468;5.814;2023-12-14T03:05:31;52.10;;;18.40;;
60243;SDS011;46106;51.468;5.814;2023-12-14T03:07:59;51.08;;;19.67;;
60243;SDS011;46106;51.468;5.814;2023-12-14T03:10:25;50.33;;;18.75;;
60243;SDS011;46106;51.468;5.814;2023-12-14T03:12:51;53.42;;;20.45;;
60243;SDS011;46106;51.468;5.814;2023-12-14T03:15:17;60.17;;;20.35;;
60243;SDS011;46106;51.468;5.814;2023-12-14T03:17:43;67.68;;;21.42;;
60243;SDS011;46106;51.468;5.814;2023-12-14T03:20:09;60.03;;;20.33;;
60243;SDS011;46106;51.468;5.814;2023-12-14T03:22:41;52.25;;;18.20;;
60243;SDS011;46106;51.468;5.814;2023-12-14T03:25:10;57.28;;;19.13;;
60243;SDS011;46106;51.468;5.814;2023-12-14T03:27:35;57.03;;;19.30;;
60243;SDS011;46106;51.468;5.814;2023-12-14T03:30:00;58.03;;;18.52;;
60243;SDS011;46106;51.468;5.814;2023-12-14T03:32:26;50.25;;;16.92;;
60243;SDS011;46106;51.468;5.814;2023-12-14T03:34:51;52.20;;;17.58;;
60243;SDS011;46106;51.468;5.814;2023-12-14T03:37:17;45.10;;;17.58;;
60243;SDS011;46106;51.468;5.814;2023-12-14T03:39:42;46.78;;;17.63;;
60243;SDS011;46106;51.468;5.814;2023-12-14T03:42:07;42.60;;;16.83;;
60243;SDS011;46106;51.468;5.814;2023-12-14T03:44:33;52.88;;;17.35;;
60243;SDS011;46106;51.468;5.814;2023-12-14T03:46:58;59.65;;;19.50;;
60243;SDS011;46106;51.468;5.814;2023-12-14T03:49:25;53.15;;;18.58;;
60243;SDS011;46106;51.468;5.814;2023-12-14T03:51:50;50.28;;;18.33;;
60243;SDS011;46106;51.468;5.814;2023-12-14T03:54:16;52.92;;;20.23;;
60243;SDS011;46106;51.468;5.814;2023-12-14T03:56:41;59.78;;;20.95;;
60243;SDS011;46106;51.468;5.814;2023-12-14T03:59:06;50.97;;;19.95;;
60243;SDS011;46106;51.468;5.814;2023-12-14T04:01:32;47.80;;;18.88;;
60243;SDS011;46106;51.468;5.814;2023-12-14T04:03:58;49.58;;;19.40;;
60243;SDS011;46106;51.468;5.814;2023-12-14T04:06:24;49.90;;;18.95;;
60243;SDS011;46106;51.468;5.814;2023-12-14T04:08:49;52.92;;;19.05;;
60243;SDS011;46106;51.468;5.814;2023-12-14T04:11:14;55.97;;;20.13;;
60243;SDS011;46106;51.468;5.814;2023-12-14T04:13:40;54.88;;;19.77;;
60243;SDS011;46106;51.468;5.814;2023-12-14T04:16:05;51.88;;;19.65;;
60243;SDS011;46106;51.468;5.814;2023-12-14T04:18:31;49.28;;;19.55;;
60243;SDS011;46106;51.468;5.814;2023-12-14T04:20:57;54.55;;;20.65;;
60243;SDS011;46106;51.468;5.814;2023-12-14T04:23:22;49.50;;;19.10;;
60243;SDS011;46106;51.468;5.814;2023-12-14T04:25:47;48.67;;;18.70;;
60243;SDS011;46106;51.468;5.814;2023-12-14T04:28:13;45.28;;;19.13;;
60243;SDS011;46106;51.468;5.814;2023-12-14T04:30:38;44.00;;;17.85;;
60243;SDS011;46106;51.468;5.814;2023-12-14T04:33:04;43.10;;;18.83;;
60243;SDS011;46106;51.468;5.814;2023-12-14T04:35:29;41.63;;;18.67;;
60243;SDS011;46106;51.468;5.814;2023-12-14T04:37:56;45.50;;;18.38;;
60243;SDS011;46106;51.468;5.814;2023-12-14T04:40:21;49.15;;;19.98;;
60243;SDS011;46106;51.468;5.814;2023-12-14T04:42:47;42.90;;;18.90;;
60243;SDS011;46106;51.468;5.814;2023-12-14T04:45:12;43.53;;;18.70;;
60243;SDS011;46106;51.468;5.814;2023-12-14T04:47:38;46.67;;;18.77;;
60243;SDS011;46106;51.468;5.814;2023-12-14T04:50:03;47.30;;;20.08;;
60243;SDS011;46106;51.468;5.814;2023-12-14T04:52:29;49.97;;;20.33;;
60243;SDS011;46106;51.468;5.814;2023-12-14T04:54:55;40.50;;;18.45;;
60243;SDS011;46106;51.468;5.814;2023-12-14T04:57:20;48.25;;;19.67;;
60243;SDS011;46106;51.468;5.814;2023-12-14T04:59:45;47.03;;;20.58;;
60243;SDS011;46106;51.468;5.814;2023-12-14T05:02:11;48.30;;;20.90;;
60243;SDS011;46106;51.468;5.814;2023-12-14T05:04:36;48.60;;;21.10;;
60243;SDS011;46106;51.468;5.814;2023-12-14T05:07:02;51.95;;;20.58;;
60243;SDS011;46106;51.468;5.814;2023-12-14T05:09:27;47.20;;;18.85;;
60243;SDS011;46106;51.468;5.814;2023-12-14T05:11:53;45.60;;;19.88;;
60243;SDS011;46106;51.468;5.814;2023-12-14T05:14:18;44.20;;;20.38;;
60243;SDS011;46106;51.468;5.814;2023-12-14T05:16:44;52.22;;;20.45;;
60243;SDS011;46106;51.468;5.814;2023-12-14T05:19:09;46.72;;;19.42;;
60243;SDS011;46106;51.468;5.814;2023-12-14T05:21:35;50.95;;;19.45;;
60243;SDS011;46106;51.468;5.814;2023-12-14T05:24:00;44.03;;;19.67;;
60243;SDS011;46106;51.468;5.814;2023-12-14T05:26:26;40.15;;;20.08;;
60243;SDS011;46106;51.468;5.814;2023-12-14T05:28:51;46.47;;;19.38;;
60243;SDS011;46106;51.468;5.814;2023-12-14T05:31:17;45.33;;;19.00;;
60243;SDS011;46106;51.468;5.814;2023-12-14T05:33:43;45.03;;;20.55;;
60243;SDS011;46106;51.468;5.814;2023-12-14T05:36:08;49.78;;;20.70;;
60243;SDS011;46106;51.468;5.814;2023-12-14T05:38:35;44.72;;;20.33;;
60243;SDS011;46106;51.468;5.814;2023-12-14T05:41:03;45.20;;;20.42;;
60243;SDS011;46106;51.468;5.814;2023-12-14T05:43:28;50.08;;;20.73;;
60243;SDS011;46106;51.468;5.814;2023-12-14T05:45:54;44.00;;;19.95;;
60243;SDS011;46106;51.468;5.814;2023-12-14T05:48:19;39.85;;;18.13;;
60243;SDS011;46106;51.468;5.814;2023-12-14T05:50:45;51.30;;;20.60;;
60243;SDS011;46106;51.468;5.814;2023-12-14T05:53:10;42.60;;;18.70;;
60243;SDS011;46106;51.468;5.814;2023-12-14T05:55:35;41.22;;;19.08;;
60243;SDS011;46106;51.468;5.814;2023-12-14T05:58:01;38.28;;;18.02;;
60243;SDS011;46106;51.468;5.814;2023-12-14T06:00:26;49.25;;;19.30;;
60243;SDS011;46106;51.468;5.814;2023-12-14T06:02:52;44.25;;;19.38;;
60243;SDS011;46106;51.468;5.814;2023-12-14T06:05:17;37.95;;;18.15;;
60243;SDS011;46106;51.468;5.814;2023-12-14T06:07:43;40.05;;;17.13;;
60243;SDS011;46106;51.468;5.814;2023-12-14T06:10:09;35.75;;;17.13;;
60243;SDS011;46106;51.468;5.814;2023-12-14T06:12:36;41.33;;;18.20;;
60243;SDS011;46106;51.468;5.814;2023-12-14T06:15:02;32.72;;;17.02;;
60243;SDS011;46106;51.468;5.814;2023-12-14T06:17:28;37.70;;;18.63;;
60243;SDS011;46106;51.468;5.814;2023-12-14T06:19:59;38.90;;;16.85;;
60243;SDS011;46106;51.468;5.814;2023-12-14T06:22:26;36.00;;;17.48;;
60243;SDS011;46106;51.468;5.814;2023-12-14T06:24:51;34.30;;;16.83;;
60243;SDS011;46106;51.468;5.814;2023-12-14T06:27:17;40.85;;;17.92;;
60243;SDS011;46106;51.468;5.814;2023-12-14T06:29:42;38.88;;;18.35;;
60243;SDS011;46106;51.468;5.814;2023-12-14T06:32:10;33.55;;;16.73;;
60243;SDS011;46106;51.468;5.814;2023-12-14T06:34:35;37.45;;;17.67;;
60243;SDS011;46106;51.468;5.814;2023-12-14T06:37:01;38.10;;;17.70;;
60243;SDS011;46106;51.468;5.814;2023-12-14T06:39:28;37.50;;;17.67;;
60243;SDS011;46106;51.468;5.814;2023-12-14T06:41:54;29.67;;;15.70;;
60243;SDS011;46106;51.468;5.814;2023-12-14T06:44:20;33.13;;;15.90;;
60243;SDS011;46106;51.468;5.814;2023-12-14T06:46:45;31.98;;;16.08;;
60243;SDS011;46106;51.468;5.814;2023-12-14T06:49:11;32.47;;;16.40;;
60243;SDS011;46106;51.468;5.814;2023-12-14T06:51:37;34.00;;;17.95;;
60243;SDS011;46106;51.468;5.814;2023-12-14T06:54:05;30.98;;;15.68;;
60243;SDS011;46106;51.468;5.814;2023-12-14T06:56:35;30.85;;;16.48;;
60243;SDS011;46106;51.468;5.814;2023-12-14T06:59:01;31.60;;;16.17;;
60243;SDS011;46106;51.468;5.814;2023-12-14T07:01:27;29.13;;;15.52;;
60243;SDS011;46106;51.468;5.814;2023-12-14T07:03:52;31.80;;;15.98;;
60243;SDS011;46106;51.468;5.814;2023-12-14T07:06:19;31.10;;;16.05;;
60243;SDS011;46106;51.468;5.814;2023-12-14T07:08:46;39.42;;;19.02;;
60243;SDS011;46106;51.468;5.814;2023-12-14T07:11:15;36.33;;;17.75;;
60243;SDS011;46106;51.468;5.814;2023-12-14T07:13:42;35.67;;;18.10;;
60243;SDS011;46106;51.468;5.814;2023-12-14T07:16:11;36.35;;;17.50;;
60243;SDS011;46106;51.468;5.814;2023-12-14T07:18:39;34.67;;;18.45;;
60243;SDS011;46106;51.468;5.814;2023-12-14T07:21:07;40.63;;;18.02;;
60243;SDS011;46106;51.468;5.814;2023-12-14T07:23:34;40.17;;;17.98;;
60243;SDS011;46106;51.468;5.814;2023-12-14T07:26:00;39.17;;;19.67;;
60243;SDS011;46106;51.468;5.814;2023-12-14T07:28:26;38.30;;;17.90;;
60243;SDS011;46106;51.468;5.814;2023-12-14T07:30:53;36.28;;;17.95;;
60243;SDS011;46106;51.468;5.814;2023-12-14T07:33:18;41.35;;;18.75;;
60243;SDS011;46106;51.468;5.814;2023-12-14T07:35:44;41.83;;;19.58;;
60243;SDS011;46106;51.468;5.814;2023-12-14T07:38:10;40.25;;;18.45;;
60243;SDS011;46106;51.468;5.814;2023-12-14T07:40:36;45.20;;;19.90;;
60243;SDS011;46106;51.468;5.814;2023-12-14T07:43:05;43.80;;;20.10;;
60243;SDS011;46106;51.468;5.814;2023-12-14T07:45:32;40.40;;;19.30;;
60243;SDS011;46106;51.468;5.814;2023-12-14T07:47:58;39.17;;;18.20;;
60243;SDS011;46106;51.468;5.814;2023-12-14T07:50:23;37.55;;;18.60;;
60243;SDS011;46106;51.468;5.814;2023-12-14T07:52:53;36.28;;;18.40;;
60243;SDS011;46106;51.468;5.814;2023-12-14T07:55:21;36.45;;;18.15;;
60243;SDS011;46106;51.468;5.814;2023-12-14T07:57:46;41.10;;;18.73;;
60243;SDS011;46106;51.468;5.814;2023-12-14T08:00:13;44.75;;;18.25;;
60243;SDS011;46106;51.468;5.814;2023-12-14T08:02:43;35.17;;;17.77;;
60243;SDS011;46106;51.468;5.814;2023-12-14T08:05:08;42.10;;;18.55;;
60243;SDS011;46106;51.468;5.814;2023-12-14T08:07:37;39.42;;;19.08;;
60243;SDS011;46106;51.468;5.814;2023-12-14T08:10:02;35.30;;;16.45;;
60243;SDS011;46106;51.468;5.814;2023-12-14T08:12:28;36.85;;;17.90;;
60243;SDS011;46106;51.468;5.814;2023-12-14T08:14:55;35.72;;;17.67;;
60243;SDS011;46106;51.468;5.814;2023-12-14T08:17:20;36.90;;;17.98;;
60243;SDS011;46106;51.468;5.814;2023-12-14T08:19:46;35.25;;;17.60;;
60243;SDS011;46106;51.468;5.814;2023-12-14T08:22:12;38.65;;;17.23;;
60243;SDS011;46106;51.468;5.814;2023-12-14T08:24:40;37.35;;;17.58;;
60243;SDS011;46106;51.468;5.814;2023-12-14T08:27:26;36.47;;;16.90;;
60243;SDS011;46106;51.468;5.814;2023-12-14T08:29:51;37.40;;;16.92;;
60243;SDS011;46106;51.468;5.814;2023-12-14T08:32:20;34.65;;;16.25;;
60243;SDS011;46106;51.468;5.814;2023-12-14T08:34:45;45.15;;;16.73;;
60243;SDS011;46106;51.468;5.814;2023-12-14T08:37:12;35.05;;;16.77;;
60243;SDS011;46106;51.468;5.814;2023-12-14T08:39:38;41.08;;;17.15;;
60243;SDS011;46106;51.468;5.814;2023-12-14T08:42:03;31.42;;;15.45;;
60243;SDS011;46106;51.468;5.814;2023-12-14T08:44:31;34.33;;;15.93;;
60243;SDS011;46106;51.468;5.814;2023-12-14T08:46:57;32.78;;;15.52;;
60243;SDS011;46106;51.468;5.814;2023-12-14T08:49:24;34.15;;;15.82;;
60243;SDS011;46106;51.468;5.814;2023-12-14T08:51:51;34.88;;;15.80;;
60243;SDS011;46106;51.468;5.814;2023-12-14T08:54:17;37.25;;;17.35;;
60243;SDS011;46106;51.468;5.814;2023-12-14T08:56:45;40.88;;;17.23;;
60243;SDS011;46106;51.468;5.814;2023-12-14T08:59:10;34.28;;;15.32;;
60243;SDS011;46106;51.468;5.814;2023-12-14T09:01:38;32.58;;;15.57;;
60243;SDS011;46106;51.468;5.814;2023-12-14T09:04:04;32.97;;;15.10;;
60243;SDS011;46106;51.468;5.814;2023-12-14T09:06:30;28.95;;;14.23;;
60243;SDS011;46106;51.468;5.814;2023-12-14T09:08:56;33.08;;;15.27;;
60243;SDS011;46106;51.468;5.814;2023-12-14T09:11:23;25.33;;;13.63;;
60243;SDS011;46106;51.468;5.814;2023-12-14T09:13:48;33.90;;;14.52;;
60243;SDS011;46106;51.468;5.814;2023-12-14T09:16:15;31.92;;;14.52;;
60243;SDS011;46106;51.468;5.814;2023-12-14T09:18:41;32.05;;;15.40;;
60243;SDS011;46106;51.468;5.814;2023-12-14T09:21:07;37.28;;;15.35;;
60243;SDS011;46106;51.468;5.814;2023-12-14T09:23:33;32.17;;;14.25;;
60243;SDS011;46106;51.468;5.814;2023-12-14T09:26:00;31.05;;;15.23;;
60243;SDS011;46106;51.468;5.814;2023-12-14T09:28:26;34.78;;;15.52;;
60243;SDS011;46106;51.468;5.814;2023-12-14T09:30:52;32.13;;;14.52;;
60243;SDS011;46106;51.468;5.814;2023-12-14T09:33:19;31.25;;;15.85;;
60243;SDS011;46106;51.468;5.814;2023-12-14T09:35:45;33.13;;;15.43;;
60243;SDS011;46106;51.468;5.814;2023-12-14T09:38:11;34.30;;;15.50;;
60243;SDS011;46106;51.468;5.814;2023-12-14T09:40:39;34.05;;;15.90;;
60243;SDS011;46106;51.468;5.814;2023-12-14T09:43:07;34.00;;;16.15;;
60243;SDS011;46106;51.468;5.814;2023-12-14T09:45:34;40.75;;;16.00;;
60243;SDS011;46106;51.468;5.814;2023-12-14T09:48:01;32.30;;;15.45;;
60243;SDS011;46106;51.468;5.814;2023-12-14T09:50:30;39.15;;;15.90;;
60243;SDS011;46106;51.468;5.814;2023-12-14T09:52:56;31.40;;;15.68;;
60243;SDS011;46106;51.468;5.814;2023-12-14T09:55:23;37.22;;;16.42;;
60243;SDS011;46106;51.468;5.814;2023-12-14T09:57:49;35.33;;;16.67;;
60243;SDS011;46106;51.468;5.814;2023-12-14T10:03:19;35.95;;;16.95;;
60243;SDS011;46106;51.468;5.814;2023-12-14T10:05:47;38.80;;;16.73;;
60243;SDS011;46106;51.468;5.814;2023-12-14T10:08:16;38.35;;;16.27;;
60243;SDS011;46106;51.468;5.814;2023-12-14T10:10:43;32.88;;;16.30;;
60243;SDS011;46106;51.468;5.814;2023-12-14T10:13:10;35.17;;;15.73;;
60243;SDS011;46106;51.468;5.814;2023-12-14T10:15:42;36.47;;;17.48;;
60243;SDS011;46106;51.468;5.814;2023-12-14T10:18:13;33.75;;;16.25;;
60243;SDS011;46106;51.468;5.814;2023-12-14T10:20:48;30.13;;;16.00;;
60243;SDS011;46106;51.468;5.814;2023-12-14T10:23:14;25.25;;;13.88;;
60243;SDS011;46106;51.468;5.814;2023-12-14T10:25:39;28.20;;;14.50;;
60243;SDS011;46106;51.468;5.814;2023-12-14T10:28:05;27.92;;;14.32;;
60243;SDS011;46106;51.468;5.814;2023-12-14T10:30:30;33.45;;;13.93;;
60243;SDS011;46106;51.468;5.814;2023-12-14T10:32:56;25.83;;;12.80;;
60243;SDS011;46106;51.468;5.814;2023-12-14T10:35:22;24.85;;;11.98;;
60243;SDS011;46106;51.468;5.814;2023-12-14T10:37:51;28.23;;;12.98;;
60243;SDS011;46106;51.468;5.814;2023-12-14T10:40:19;30.38;;;13.35;;
60243;SDS011;46106;51.468;5.814;2023-12-14T10:42:46;26.58;;;13.35;;
60243;SDS011;46106;51.468;5.814;2023-12-14T10:45:14;22.33;;;11.95;;
60243;SDS011;46106;51.468;5.814;2023-12-14T10:47:43;30.23;;;12.95;;
60243;SDS011;46106;51.468;5.814;2023-12-14T10:50:10;26.98;;;13.18;;
60243;SDS011;46106;51.468;5.814;2023-12-14T10:52:40;27.95;;;12.13;;
60243;SDS011;46106;51.468;5.814;2023-12-14T10:55:49;24.38;;;12.88;;
60243;SDS011;46106;51.468;5.814;2023-12-14T10:58:10;29.30;;;13.00;;
60243;SDS011;46106;51.468;5.814;2023-12-14T11:00:37;26.67;;;12.95;;
60243;SDS011;46106;51.468;5.814;2023-12-14T11:03:05;23.77;;;12.60;;
60243;SDS011;46106;51.468;5.814;2023-12-14T11:05:34;25.73;;;12.93;;
60243;SDS011;46106;51.468;5.814;2023-12-14T11:08:04;23.67;;;12.65;;
60243;SDS011;46106;51.468;5.814;2023-12-14T11:10:39;25.08;;;12.68;;
60243;SDS011;46106;51.468;5.814;2023-12-14T11:13:08;22.67;;;11.93;;
60243;SDS011;46106;51.468;5.814;2023-12-14T11:15:39;20.80;;;11.98;;
60243;SDS011;46106;51.468;5.814;2023-12-14T11:20:48;25.88;;;13.40;;
60243;SDS011;46106;51.468;5.814;2023-12-14T11:23:26;21.92;;;12.50;;
60243;SDS011;46106;51.468;5.814;2023-12-14T11:25:59;23.67;;;11.82;;
60243;SDS011;46106;51.468;5.814;2023-12-14T11:28:30;25.85;;;12.52;;
60243;SDS011;46106;51.468;5.814;2023-12-14T11:31:00;21.77;;;11.82;;
60243;SDS011;46106;51.468;5.814;2023-12-14T11:33:28;26.73;;;12.00;;
60243;SDS011;46106;51.468;5.814;2023-12-14T11:35:54;21.73;;;11.98;;
60243;SDS011;46106;51.468;5.814;2023-12-14T11:38:22;25.13;;;12.73;;
60243;SDS011;46106;51.468;5.814;2023-12-14T11:40:49;21.92;;;11.65;;
60243;SDS011;46106;51.468;5.814;2023-12-14T11:43:15;20.88;;;11.18;;
60243;SDS011;46106;51.468;5.814;2023-12-14T11:45:45;24.75;;;11.77;;
60243;SDS011;46106;51.468;5.814;2023-12-14T11:48:12;21.73;;;11.27;;
60243;SDS011;46106;51.468;5.814;2023-12-14T11:50:39;21.40;;;12.20;;
60243;SDS011;46106;51.468;5.814;2023-12-14T11:53:07;24.05;;;11.73;;
60243;SDS011;46106;51.468;5.814;2023-12-14T11:55:36;21.13;;;11.02;;
60243;SDS011;46106;51.468;5.814;2023-12-14T11:58:06;20.38;;;10.63;;
60243;SDS011;46106;51.468;5.814;2023-12-14T12:00:32;20.17;;;10.40;;
60243;SDS011;46106;51.468;5.814;2023-12-14T12:03:13;20.20;;;11.00;;
60243;SDS011;46106;51.468;5.814;2023-12-14T12:05:49;18.48;;;10.45;;
60243;SDS011;46106;51.468;5.814;2023-12-14T12:08:18;21.80;;;11.48;;
60243;SDS011;46106;51.468;5.814;2023-12-14T12:10:46;23.50;;;10.63;;
60243;SDS011;46106;51.468;5.814;2023-12-14T12:13:14;21.13;;;11.40;;
60243;SDS011;46106;51.468;5.814;2023-12-14T12:15:41;20.08;;;11.27;;
60243;SDS011;46106;51.468;5.814;2023-12-14T12:18:08;22.13;;;11.63;;
60243;SDS011;46106;51.468;5.814;2023-12-14T12:20:35;19.60;;;10.82;;
60243;SDS011;46106;51.468;5.814;2023-12-14T12:23:01;20.48;;;9.88;;
60243;SDS011;46106;51.468;5.814;2023-12-14T12:25:27;21.15;;;11.48;;
60243;SDS011;46106;51.468;5.814;2023-12-14T12:27:54;20.73;;;11.45;;
60243;SDS011;46106;51.468;5.814;2023-12-14T12:30:20;21.98;;;11.00;;
60243;SDS011;46106;51.468;5.814;2023-12-14T12:32:46;20.45;;;10.88;;
60243;SDS011;46106;51.468;5.814;2023-12-14T12:35:12;22.35;;;10.77;;
60243;SDS011;46106;51.468;5.814;2023-12-14T12:37:40;18.52;;;10.30;;
60243;SDS011;46106;51.468;5.814;2023-12-14T12:40:06;22.45;;;10.90;;
60243;SDS011;46106;51.468;5.814;2023-12-14T12:42:33;23.85;;;12.25;;
60243;SDS011;46106;51.468;5.814;2023-12-14T12:44:59;20.13;;;11.35;;
60243;SDS011;46106;51.468;5.814;2023-12-14T12:47:25;22.02;;;11.13;;
60243;SDS011;46106;51.468;5.814;2023-12-14T12:49:52;21.17;;;10.70;;
60243;SDS011;46106;51.468;5.814;2023-12-14T12:52:18;21.55;;;11.82;;
60243;SDS011;46106;51.468;5.814;2023-12-14T12:54:43;20.70;;;11.65;;
60243;SDS011;46106;51.468;5.814;2023-12-14T12:57:10;19.95;;;11.30;;
60243;SDS011;46106;51.468;5.814;2023-12-14T12:59:37;21.00;;;11.50;;
60243;SDS011;46106;51.468;5.814;2023-12-14T13:02:03;20.85;;;10.82;;
60243;SDS011;46106;51.468;5.814;2023-12-14T13:04:28;21.67;;;11.70;;
60243;SDS011;46106;51.468;5.814;2023-12-14T13:06:55;19.38;;;11.55;;
60243;SDS011;46106;51.468;5.814;2023-12-14T13:09:23;24.75;;;11.75;;
60243;SDS011;46106;51.468;5.814;2023-12-14T13:11:48;20.95;;;12.27;;
60243;SDS011;46106;51.468;5.814;2023-12-14T13:14:19;20.60;;;10.60;;
60243;SDS011;46106;51.468;5.814;2023-12-14T13:16:45;17.77;;;10.00;;
60243;SDS011;46106;51.468;5.814;2023-12-14T13:19:14;21.10;;;11.65;;
60243;SDS011;46106;51.468;5.814;2023-12-14T13:21:40;23.05;;;12.07;;
60243;SDS011;46106;51.468;5.814;2023-12-14T13:24:06;21.60;;;11.57;;
60243;SDS011;46106;51.468;5.814;2023-12-14T13:26:32;22.00;;;11.88;;
60243;SDS011;46106;51.468;5.814;2023-12-14T13:28:58;20.75;;;12.48;;
60243;SDS011;46106;51.468;5.814;2023-12-14T13:31:25;19.10;;;10.38;;
60243;SDS011;46106;51.468;5.814;2023-12-14T13:33:50;21.67;;;11.00;;
60243;SDS011;46106;51.468;5.814;2023-12-14T13:36:16;22.65;;;11.70;;
60243;SDS011;46106;51.468;5.814;2023-12-14T13:38:41;20.08;;;10.95;;
60243;SDS011;46106;51.468;5.814;2023-12-14T13:41:07;21.05;;;11.35;;
60243;SDS011;46106;51.468;5.814;2023-12-14T13:43:33;19.02;;;11.02;;
60243;SDS011;46106;51.468;5.814;2023-12-14T13:46:01;25.63;;;11.70;;
60243;SDS011;46106;51.468;5.814;2023-12-14T13:48:27;17.50;;;10.13;;
60243;SDS011;46106;51.468;5.814;2023-12-14T13:50:53;22.52;;;11.75;;
60243;SDS011;46106;51.468;5.814;2023-12-14T13:53:20;20.23;;;11.15;;
60243;SDS011;46106;51.468;5.814;2023-12-14T13:55:47;22.90;;;12.13;;
60243;SDS011;46106;51.468;5.814;2023-12-14T13:58:33;23.63;;;12.23;;
60243;SDS011;46106;51.468;5.814;2023-12-14T14:01:02;16.00;;;10.23;;
60243;SDS011;46106;51.468;5.814;2023-12-14T14:03:27;19.00;;;11.20;;
60243;SDS011;46106;51.468;5.814;2023-12-14T14:05:53;17.85;;;10.27;;
60243;SDS011;46106;51.468;5.814;2023-12-14T14:08:18;21.38;;;11.45;;
60243;SDS011;46106;51.468;5.814;2023-12-14T14:10:45;18.00;;;11.02;;
60243;SDS011;46106;51.468;5.814;2023-12-14T14:13:14;20.52;;;11.13;;
60243;SDS011;46106;51.468;5.814;2023-12-14T14:15:40;23.77;;;12.32;;
60243;SDS011;46106;51.468;5.814;2023-12-14T14:18:06;18.63;;;11.18;;
60243;SDS011;46106;51.468;5.814;2023-12-14T14:20:32;24.65;;;11.45;;
60243;SDS011;46106;51.468;5.814;2023-12-14T14:22:58;27.20;;;12.90;;